createdAt,value
2023-02-25T00:13:49.542Z,15.80
2023-02-25T00:32:29.855Z,18.50
2023-02-25T00:51:09.741Z,13.40
2023-02-25T01:09:50.620Z,14.50
2023-02-25T01:28:28.957Z,30.10
2023-02-25T01:47:12.560Z,19.20
2023-02-25T02:05:51.232Z,17.30
2023-02-25T02:24:31.332Z,13.60
2023-02-25T02:43:12.218Z,26.00
2023-02-25T03:01:47.567Z,26.20
2023-02-25T03:20:29.237Z,17.20
2023-02-25T03:39:08.156Z,52.00
2023-02-25T03:57:49.228Z,24.60
2023-02-25T04:16:26.161Z,17.50
2023-02-25T04:35:04.826Z,17.60
2023-02-25T04:53:51.097Z,20.70
2023-02-25T05:12:24.838Z,18.60
2023-02-25T05:31:05.686Z,15.30
2023-02-25T05:49:42.471Z,16.00
2023-02-25T06:08:22.034Z,17.50
2023-02-25T06:27:00.789Z,6.50
2023-02-25T06:45:39.527Z,5.00
2023-02-25T07:04:23.634Z,9.20
2023-02-25T07:22:57.018Z,2.30
2023-02-25T07:41:36.865Z,4.30
2023-02-25T08:00:17.473Z,4.10
2023-02-25T08:18:57.749Z,15.50
2023-02-25T08:37:44.498Z,11.70
2023-02-25T08:56:19.419Z,6.50
2023-02-25T09:15:08.999Z,7.00
2023-02-25T09:33:43.304Z,2.30
2023-02-25T10:11:16.173Z,2.50
2023-02-25T10:29:55.981Z,2.80
2023-02-25T10:48:47.545Z,2.60
2023-02-25T11:07:40.121Z,7.50
2023-02-25T11:26:27.870Z,10.40
2023-02-25T11:45:13.489Z,4.10
2023-02-25T12:04:03.081Z,3.90
2023-02-25T12:22:41.852Z,5.30
2023-02-25T12:41:26.164Z,4.10
2023-02-25T12:59:59.513Z,20.80
2023-02-25T13:18:21.948Z,3.50
2023-02-25T13:36:48.182Z,15.60
2023-02-25T13:55:24.168Z,8.80
2023-02-25T14:14:05.742Z,3.50
2023-02-25T14:32:48.038Z,1.90
2023-02-25T14:51:19.414Z,1.40
2023-02-25T15:09:57.697Z,18.90
2023-02-25T15:28:31.570Z,9.10
2023-02-25T15:47:08.883Z,2.90
2023-02-25T16:05:44.800Z,1.70
2023-02-25T16:24:22.408Z,3.30
2023-02-25T16:43:00.400Z,2.30
2023-02-25T17:01:39.260Z,1.30
2023-02-25T17:20:17.195Z,2.90
2023-02-25T17:38:55.843Z,1.00
2023-02-25T18:35:01.598Z,1.10
2023-02-25T18:53:52.964Z,3.60
2023-02-25T19:12:05.289Z,3.90
2023-02-25T19:30:41.668Z,1.90
2023-02-25T19:49:20.106Z,0.80
2023-02-25T20:07:56.652Z,1.20
2023-02-25T20:26:34.235Z,0.90
2023-02-25T20:45:14.838Z,7.30
2023-02-25T21:03:48.448Z,2.60
2023-02-25T21:59:41.483Z,1.40
2023-02-25T22:18:19.445Z,0.80
2023-02-25T22:55:36.953Z,0.80
2023-02-25T23:14:16.328Z,1.10
2023-02-25T23:32:51.223Z,1.70
2023-02-25T23:51:35.406Z,0.60
